sensor_id;sensor_type;location;lat;lon;timestamp;temperature;humidity
8152;DHT22;4117;53.622;9.958;2024-02-26T00:01:15;3.20;99.90
8152;DHT22;4117;53.622;9.958;2024-02-26T00:03:46;3.20;99.90
8152;DHT22;4117;53.622;9.958;2024-02-26T00:06:15;3.20;99.90
8152;DHT22;4117;53.622;9.958;2024-02-26T00:08:43;3.10;99.90
8152;DHT22;4117;53.622;9.958;2024-02-26T00:11:11;3.10;99.90
8152;DHT22;4117;53.622;9.958;2024-02-26T00:13:39;3.00;99.90
8152;DHT22;4117;53.622;9.958;2024-02-26T00:16:06;3.00;99.90
8152;DHT22;4117;53.622;9.958;2024-02-26T00:18:52;3.00;99.90
8152;DHT22;4117;53.622;9.958;2024-02-26T00:21:20;2.90;99.90
8152;DHT22;4117;53.622;9.958;2024-02-26T00:23:50;2.80;99.90
8152;DHT22;4117;53.622;9.958;2024-02-26T00:26:20;2.80;99.90
8152;DHT22;4117;53.622;9.958;2024-02-26T00:28:49;2.70;99.90
8152;DHT22;4117;53.622;9.958;2024-02-26T00:31:16;2.70;99.90
8152;DHT22;4117;53.622;9.958;2024-02-26T00:33:43;2.70;99.90
8152;DHT22;4117;53.622;9.958;2024-02-26T00:36:11;2.60;99.90
8152;DHT22;4117;53.622;9.958;2024-02-26T00:38:38;2.60;99.90
8152;DHT22;4117;53.622;9.958;2024-02-26T00:41:06;2.60;99.90
8152;DHT22;4117;53.622;9.958;2024-02-26T00:43:33;2.50;99.90
8152;DHT22;4117;53.622;9.958;2024-02-26T00:46:00;2.50;99.90
8152;DHT22;4117;53.622;9.958;2024-02-26T00:48:27;2.50;99.90
8152;DHT22;4117;53.622;9.958;2024-02-26T00:50:54;2.50;99.90
8152;DHT22;4117;53.622;9.958;2024-02-26T00:53:23;2.40;99.90
8152;DHT22;4117;53.622;9.958;2024-02-26T00:55:51;2.30;99.90
8152;DHT22;4117;53.622;9.958;2024-02-26T00:58:18;2.30;99.90
8152;DHT22;4117;53.622;9.958;2024-02-26T01:00:45;2.30;99.90
8152;DHT22;4117;53.622;9.958;2024-02-26T01:03:12;2.30;99.90
8152;DHT22;4117;53.622;9.958;2024-02-26T01:05:39;2.30;99.90
8152;DHT22;4117;53.622;9.958;2024-02-26T01:08:06;2.20;99.90
8152;DHT22;4117;53.622;9.958;2024-02-26T01:10:35;2.30;99.90
8152;DHT22;4117;53.622;9.958;2024-02-26T01:13:02;2.30;99.90
8152;DHT22;4117;53.622;9.958;2024-02-26T01:15:29;2.20;99.90
8152;DHT22;4117;53.622;9.958;2024-02-26T01:17:56;2.20;99.90
8152;DHT22;4117;53.622;9.958;2024-02-26T01:20:23;2.10;99.90
8152;DHT22;4117;53.622;9.958;2024-02-26T01:22:50;2.10;99.90
8152;DHT22;4117;53.622;9.958;2024-02-26T01:25:17;2.10;99.90
8152;DHT22;4117;53.622;9.958;2024-02-26T01:27:45;2.10;99.90
8152;DHT22;4117;53.622;9.958;2024-02-26T01:30:12;2.10;99.90
8152;DHT22;4117;53.622;9.958;2024-02-26T01:32:41;2.00;99.90
8152;DHT22;4117;53.622;9.958;2024-02-26T01:35:08;2.00;99.90
8152;DHT22;4117;53.622;9.958;2024-02-26T01:37:37;2.00;99.90
8152;DHT22;4117;53.622;9.958;2024-02-26T01:40:06;1.90;99.90
8152;DHT22;4117;53.622;9.958;2024-02-26T01:42:36;1.90;99.90
8152;DHT22;4117;53.622;9.958;2024-02-26T01:45:09;1.90;99.90
8152;DHT22;4117;53.622;9.958;2024-02-26T01:47:41;1.90;99.90
8152;DHT22;4117;53.622;9.958;2024-02-26T01:50:08;1.80;99.90
8152;DHT22;4117;53.622;9.958;2024-02-26T01:52:35;1.80;99.90
8152;DHT22;4117;53.622;9.958;2024-02-26T01:55:03;1.70;99.90
8152;DHT22;4117;53.622;9.958;2024-02-26T01:57:30;1.70;99.90
8152;DHT22;4117;53.622;9.958;2024-02-26T01:59:57;1.70;99.90
8152;DHT22;4117;53.622;9.958;2024-02-26T02:02:26;1.70;99.90
8152;DHT22;4117;53.622;9.958;2024-02-26T02:04:53;1.70;99.90
8152;DHT22;4117;53.622;9.958;2024-02-26T02:07:21;1.70;99.90
8152;DHT22;4117;53.622;9.958;2024-02-26T02:09:50;1.70;99.90
8152;DHT22;4117;53.622;9.958;2024-02-26T02:12:17;1.60;99.90
8152;DHT22;4117;53.622;9.958;2024-02-26T02:14:45;1.60;99.90
8152;DHT22;4117;53.622;9.958;2024-02-26T02:17:12;1.50;99.90
8152;DHT22;4117;53.622;9.958;2024-02-26T02:19:41;1.60;99.90
8152;DHT22;4117;53.622;9.958;2024-02-26T02:22:10;1.60;99.90
8152;DHT22;4117;53.622;9.958;2024-02-26T02:24:37;1.50;99.90
8152;DHT22;4117;53.622;9.958;2024-02-26T02:27:05;1.50;99.90
8152;DHT22;4117;53.622;9.958;2024-02-26T02:29:32;1.50;99.90
8152;DHT22;4117;53.622;9.958;2024-02-26T02:32:01;1.50;99.90
8152;DHT22;4117;53.622;9.958;2024-02-26T02:34:29;1.50;99.90
8152;DHT22;4117;53.622;9.958;2024-02-26T02:36:56;1.40;99.90
8152;DHT22;4117;53.622;9.958;2024-02-26T02:39:25;1.40;99.90
8152;DHT22;4117;53.622;9.958;2024-02-26T02:41:52;1.40;99.90
8152;DHT22;4117;53.622;9.958;2024-02-26T02:44:19;1.40;99.90
8152;DHT22;4117;53.622;9.958;2024-02-26T02:46:47;1.40;99.90
8152;DHT22;4117;53.622;9.958;2024-02-26T02:49:17;1.40;99.90
8152;DHT22;4117;53.622;9.958;2024-02-26T02:51:47;1.30;99.90
8152;DHT22;4117;53.622;9.958;2024-02-26T02:54:14;1.30;99.90
8152;DHT22;4117;53.622;9.958;2024-02-26T02:56:45;1.30;99.90
8152;DHT22;4117;53.622;9.958;2024-02-26T02:59:15;1.40;99.90
8152;DHT22;4117;53.622;9.958;2024-02-26T03:04:18;1.20;99.90
8152;DHT22;4117;53.622;9.958;2024-02-26T03:06:45;1.20;99.90
8152;DHT22;4117;53.622;9.958;2024-02-26T03:09:12;1.20;99.90
8152;DHT22;4117;53.622;9.958;2024-02-26T03:11:38;1.20;99.90
8152;DHT22;4117;53.622;9.958;2024-02-26T03:14:07;1.20;99.90
8152;DHT22;4117;53.622;9.958;2024-02-26T03:16:35;1.10;99.90
8152;DHT22;4117;53.622;9.958;2024-02-26T03:19:02;1.10;99.90
8152;DHT22;4117;53.622;9.958;2024-02-26T03:21:29;1.10;99.90
8152;DHT22;4117;53.622;9.958;2024-02-26T03:23:56;1.20;99.90
8152;DHT22;4117;53.622;9.958;2024-02-26T03:26:23;1.20;99.90
8152;DHT22;4117;53.622;9.958;2024-02-26T03:28:50;1.20;99.90
8152;DHT22;4117;53.622;9.958;2024-02-26T03:31:19;1.20;99.90
8152;DHT22;4117;53.622;9.958;2024-02-26T03:33:47;1.20;99.90
8152;DHT22;4117;53.622;9.958;2024-02-26T03:36:14;1.10;99.90
8152;DHT22;4117;53.622;9.958;2024-02-26T03:38:41;1.10;99.90
8152;DHT22;4117;53.622;9.958;2024-02-26T03:41:07;1.10;99.90
8152;DHT22;4117;53.622;9.958;2024-02-26T03:43:35;1.10;99.90
8152;DHT22;4117;53.622;9.958;2024-02-26T03:46:02;1.10;99.90
8152;DHT22;4117;53.622;9.958;2024-02-26T03:48:30;1.10;99.90
8152;DHT22;4117;53.622;9.958;2024-02-26T03:50:57;1.00;99.90
8152;DHT22;4117;53.622;9.958;2024-02-26T03:53:24;1.00;99.90
8152;DHT22;4117;53.622;9.958;2024-02-26T03:55:51;1.00;99.90
8152;DHT22;4117;53.622;9.958;2024-02-26T03:58:18;1.10;99.90
8152;DHT22;4117;53.622;9.958;2024-02-26T04:00:45;1.10;99.90
8152;DHT22;4117;53.622;9.958;2024-02-26T04:03:13;1.00;99.90
8152;DHT22;4117;53.622;9.958;2024-02-26T04:05:41;1.00;99.90
8152;DHT22;4117;53.622;9.958;2024-02-26T04:08:08;1.00;99.90
8152;DHT22;4117;53.622;9.958;2024-02-26T04:10:36;1.00;99.90
8152;DHT22;4117;53.622;9.958;2024-02-26T04:13:05;1.10;99.90
8152;DHT22;4117;53.622;9.958;2024-02-26T04:15:32;1.10;99.90
8152;DHT22;4117;53.622;9.958;2024-02-26T04:17:59;1.10;99.90
8152;DHT22;4117;53.622;9.958;2024-02-26T04:20:26;1.10;99.90
8152;DHT22;4117;53.622;9.958;2024-02-26T04:22:54;1.00;99.90
8152;DHT22;4117;53.622;9.958;2024-02-26T04:25:21;1.00;99.90
8152;DHT22;4117;53.622;9.958;2024-02-26T04:27:48;1.00;99.90
8152;DHT22;4117;53.622;9.958;2024-02-26T04:30:15;1.00;99.90
8152;DHT22;4117;53.622;9.958;2024-02-26T04:32:42;1.00;99.90
8152;DHT22;4117;53.622;9.958;2024-02-26T04:35:10;1.00;99.90
8152;DHT22;4117;53.622;9.958;2024-02-26T04:37:37;1.00;99.90
8152;DHT22;4117;53.622;9.958;2024-02-26T04:40:06;0.90;99.90
8152;DHT22;4117;53.622;9.958;2024-02-26T04:42:34;0.90;99.90
8152;DHT22;4117;53.622;9.958;2024-02-26T04:45:02;0.90;99.90
8152;DHT22;4117;53.622;9.958;2024-02-26T04:47:29;1.00;99.90
8152;DHT22;4117;53.622;9.958;2024-02-26T04:49:56;0.90;99.90
8152;DHT22;4117;53.622;9.958;2024-02-26T04:52:23;1.00;99.90
8152;DHT22;4117;53.622;9.958;2024-02-26T04:54:50;1.00;99.90
8152;DHT22;4117;53.622;9.958;2024-02-26T04:57:18;0.90;99.90
8152;DHT22;4117;53.622;9.958;2024-02-26T04:59:45;0.90;99.90
8152;DHT22;4117;53.622;9.958;2024-02-26T05:02:13;1.00;99.90
8152;DHT22;4117;53.622;9.958;2024-02-26T05:04:40;1.00;99.90
8152;DHT22;4117;53.622;9.958;2024-02-26T05:07:07;0.90;99.90
8152;DHT22;4117;53.622;9.958;2024-02-26T05:09:35;0.90;99.90
8152;DHT22;4117;53.622;9.958;2024-02-26T05:12:02;1.00;1.00
8152;DHT22;4117;53.622;9.958;2024-02-26T05:14:30;0.90;1.00
8152;DHT22;4117;53.622;9.958;2024-02-26T05:16:57;0.90;1.00
8152;DHT22;4117;53.622;9.958;2024-02-26T05:19:24;0.90;1.00
8152;DHT22;4117;53.622;9.958;2024-02-26T05:21:51;0.90;1.00
8152;DHT22;4117;53.622;9.958;2024-02-26T05:24:18;0.90;1.00
8152;DHT22;4117;53.622;9.958;2024-02-26T05:26:48;0.90;1.00
8152;DHT22;4117;53.622;9.958;2024-02-26T05:29:15;0.90;1.00
8152;DHT22;4117;53.622;9.958;2024-02-26T05:31:43;0.90;1.00
8152;DHT22;4117;53.622;9.958;2024-02-26T05:34:10;0.90;1.00
8152;DHT22;4117;53.622;9.958;2024-02-26T05:36:37;0.80;1.00
8152;DHT22;4117;53.622;9.958;2024-02-26T05:39:05;0.90;1.00
8152;DHT22;4117;53.622;9.958;2024-02-26T05:41:32;0.80;1.00
8152;DHT22;4117;53.622;9.958;2024-02-26T05:43:59;0.90;1.00
8152;DHT22;4117;53.622;9.958;2024-02-26T05:46:26;0.80;1.00
8152;DHT22;4117;53.622;9.958;2024-02-26T05:48:55;0.90;1.00
8152;DHT22;4117;53.622;9.958;2024-02-26T05:51:22;0.80;1.00
8152;DHT22;4117;53.622;9.958;2024-02-26T05:53:49;0.80;1.00
8152;DHT22;4117;53.622;9.958;2024-02-26T05:56:20;0.80;1.00
8152;DHT22;4117;53.622;9.958;2024-02-26T05:58:47;0.80;1.00
8152;DHT22;4117;53.622;9.958;2024-02-26T06:01:15;0.90;1.00
8152;DHT22;4117;53.622;9.958;2024-02-26T06:03:43;0.80;1.00
8152;DHT22;4117;53.622;9.958;2024-02-26T06:06:11;0.80;1.00
8152;DHT22;4117;53.622;9.958;2024-02-26T06:08:39;0.80;1.00
8152;DHT22;4117;53.622;9.958;2024-02-26T06:11:07;0.80;1.00
8152;DHT22;4117;53.622;9.958;2024-02-26T06:13:34;0.80;1.00
8152;DHT22;4117;53.622;9.958;2024-02-26T06:16:01;0.90;1.00
8152;DHT22;4117;53.622;9.958;2024-02-26T06:18:28;0.90;1.00
8152;DHT22;4117;53.622;9.958;2024-02-26T06:20:55;0.90;1.00
8152;DHT22;4117;53.622;9.958;2024-02-26T06:23:24;0.80;1.00
8152;DHT22;4117;53.622;9.958;2024-02-26T06:25:51;0.90;1.00
8152;DHT22;4117;53.622;9.958;2024-02-26T06:28:19;0.90;1.00
8152;DHT22;4117;53.622;9.958;2024-02-26T06:30:46;0.90;1.00
8152;DHT22;4117;53.622;9.958;2024-02-26T06:33:13;0.90;1.00
8152;DHT22;4117;53.622;9.958;2024-02-26T06:35:40;0.90;1.00
8152;DHT22;4117;53.622;9.958;2024-02-26T06:38:07;0.90;1.00
8152;DHT22;4117;53.622;9.958;2024-02-26T06:40:36;0.90;1.00
8152;DHT22;4117;53.622;9.958;2024-02-26T06:43:03;0.90;1.00
8152;DHT22;4117;53.622;9.958;2024-02-26T06:45:30;0.90;1.00
8152;DHT22;4117;53.622;9.958;2024-02-26T06:47:58;0.90;1.00
8152;DHT22;4117;53.622;9.958;2024-02-26T06:50:25;1.00;1.00
8152;DHT22;4117;53.622;9.958;2024-02-26T06:52:52;0.90;1.00
8152;DHT22;4117;53.622;9.958;2024-02-26T06:55:19;1.00;1.00
8152;DHT22;4117;53.622;9.958;2024-02-26T06:57:47;1.00;1.00
8152;DHT22;4117;53.622;9.958;2024-02-26T07:00:15;1.00;1.00
8152;DHT22;4117;53.622;9.958;2024-02-26T07:02:42;1.00;1.00
8152;DHT22;4117;53.622;9.958;2024-02-26T07:05:10;1.00;1.00
8152;DHT22;4117;53.622;9.958;2024-02-26T07:07:37;1.00;1.00
8152;DHT22;4117;53.622;9.958;2024-02-26T07:10:04;1.10;1.00
8152;DHT22;4117;53.622;9.958;2024-02-26T07:12:32;1.10;1.00
8152;DHT22;4117;53.622;9.958;2024-02-26T07:15:00;1.10;1.00
8152;DHT22;4117;53.622;9.958;2024-02-26T07:17:28;1.10;1.00
8152;DHT22;4117;53.622;9.958;2024-02-26T07:19:55;1.20;1.00
8152;DHT22;4117;53.622;9.958;2024-02-26T07:22:22;1.20;1.00
8152;DHT22;4117;53.622;9.958;2024-02-26T07:24:50;1.20;1.00
8152;DHT22;4117;53.622;9.958;2024-02-26T07:27:18;1.20;1.00
8152;DHT22;4117;53.622;9.958;2024-02-26T07:29:46;1.20;1.00
8152;DHT22;4117;53.622;9.958;2024-02-26T07:32:15;1.20;1.00
8152;DHT22;4117;53.622;9.958;2024-02-26T07:34:42;1.20;1.00
8152;DHT22;4117;53.622;9.958;2024-02-26T07:37:10;1.30;1.00
8152;DHT22;4117;53.622;9.958;2024-02-26T07:39:37;1.30;1.00
8152;DHT22;4117;53.622;9.958;2024-02-26T07:42:04;1.30;1.00
8152;DHT22;4117;53.622;9.958;2024-02-26T07:44:32;1.30;1.00
8152;DHT22;4117;53.622;9.958;2024-02-26T07:46:59;1.30;1.00
8152;DHT22;4117;53.622;9.958;2024-02-26T07:49:27;1.40;1.00
8152;DHT22;4117;53.622;9.958;2024-02-26T07:51:54;1.40;1.00
8152;DHT22;4117;53.622;9.958;2024-02-26T07:54:23;1.40;1.00
8152;DHT22;4117;53.622;9.958;2024-02-26T07:56:50;1.50;1.00
8152;DHT22;4117;53.622;9.958;2024-02-26T07:59:17;1.50;1.00
8152;DHT22;4117;53.622;9.958;2024-02-26T08:01:49;1.50;1.00
8152;DHT22;4117;53.622;9.958;2024-02-26T08:04:16;1.60;1.00
8152;DHT22;4117;53.622;9.958;2024-02-26T08:06:44;1.60;1.00
8152;DHT22;4117;53.622;9.958;2024-02-26T08:09:11;1.60;1.00
8152;DHT22;4117;53.622;9.958;2024-02-26T08:11:39;1.60;1.00
8152;DHT22;4117;53.622;9.958;2024-02-26T08:14:06;1.70;1.00
8152;DHT22;4117;53.622;9.958;2024-02-26T08:16:33;1.70;1.00
8152;DHT22;4117;53.622;9.958;2024-02-26T08:19:00;1.70;1.00
8152;DHT22;4117;53.622;9.958;2024-02-26T08:21:27;1.80;1.00
8152;DHT22;4117;53.622;9.958;2024-02-26T08:23:56;1.80;1.00
8152;DHT22;4117;53.622;9.958;2024-02-26T08:26:23;1.80;1.00
8152;DHT22;4117;53.622;9.958;2024-02-26T08:28:50;1.80;1.00
8152;DHT22;4117;53.622;9.958;2024-02-26T08:31:17;1.80;1.00
8152;DHT22;4117;53.622;9.958;2024-02-26T08:33:44;1.90;1.00
8152;DHT22;4117;53.622;9.958;2024-02-26T08:36:11;1.90;1.00
8152;DHT22;4117;53.622;9.958;2024-02-26T08:38:38;1.90;1.00
8152;DHT22;4117;53.622;9.958;2024-02-26T08:41:07;1.90;1.00
8152;DHT22;4117;53.622;9.958;2024-02-26T08:43:34;1.90;1.00
8152;DHT22;4117;53.622;9.958;2024-02-26T08:46:01;2.00;1.00
8152;DHT22;4117;53.622;9.958;2024-02-26T08:48:28;2.00;1.00
8152;DHT22;4117;53.622;9.958;2024-02-26T08:50:55;2.00;1.00
8152;DHT22;4117;53.622;9.958;2024-02-26T08:53:22;2.10;1.00
8152;DHT22;4117;53.622;9.958;2024-02-26T08:55:49;2.10;1.00
8152;DHT22;4117;53.622;9.958;2024-02-26T08:58:18;2.20;1.00
8152;DHT22;4117;53.622;9.958;2024-02-26T09:00:46;2.20;1.00
8152;DHT22;4117;53.622;9.958;2024-02-26T09:03:13;2.30;1.00
8152;DHT22;4117;53.622;9.958;2024-02-26T09:05:40;2.30;1.00
8152;DHT22;4117;53.622;9.958;2024-02-26T09:08:07;2.30;1.00
8152;DHT22;4117;53.622;9.958;2024-02-26T09:10:34;2.40;1.00
8152;DHT22;4117;53.622;9.958;2024-02-26T09:13:01;2.40;1.00
8152;DHT22;4117;53.622;9.958;2024-02-26T09:15:29;2.50;1.40
8152;DHT22;4117;53.622;9.958;2024-02-26T09:17:56;2.60;6.90
8152;DHT22;4117;53.622;9.958;2024-02-26T09:20:23;2.60;12.20
8152;DHT22;4117;53.622;9.958;2024-02-26T09:22:51;2.60;15.60
8152;DHT22;4117;53.622;9.958;2024-02-26T09:25:18;2.70;17.50
8152;DHT22;4117;53.622;9.958;2024-02-26T09:27:45;2.70;17.40
8152;DHT22;4117;53.622;9.958;2024-02-26T09:30:13;2.70;18.80
8152;DHT22;4117;53.622;9.958;2024-02-26T09:32:46;2.80;22.60
8152;DHT22;4117;53.622;9.958;2024-02-26T09:35:13;2.80;24.60
8152;DHT22;4117;53.622;9.958;2024-02-26T09:37:40;2.90;27.60
8152;DHT22;4117;53.622;9.958;2024-02-26T09:40:10;2.90;27.60
8152;DHT22;4117;53.622;9.958;2024-02-26T09:42:43;3.00;27.50
8152;DHT22;4117;53.622;9.958;2024-02-26T09:45:18;3.00;27.60
8152;DHT22;4117;53.622;9.958;2024-02-26T09:47:48;3.00;27.70
8152;DHT22;4117;53.622;9.958;2024-02-26T09:50:17;3.00;27.70
8152;DHT22;4117;53.622;9.958;2024-02-26T09:52:48;3.10;27.70
8152;DHT22;4117;53.622;9.958;2024-02-26T09:55:16;3.10;27.70
8152;DHT22;4117;53.622;9.958;2024-02-26T09:57:45;3.20;27.90
8152;DHT22;4117;53.622;9.958;2024-02-26T10:00:17;3.20;27.80
8152;DHT22;4117;53.622;9.958;2024-02-26T10:02:47;3.30;27.90
8152;DHT22;4117;53.622;9.958;2024-02-26T10:05:16;3.30;27.90
8152;DHT22;4117;53.622;9.958;2024-02-26T10:07:44;3.30;28.90
8152;DHT22;4117;53.622;9.958;2024-02-26T10:10:12;3.40;31.30
8152;DHT22;4117;53.622;9.958;2024-02-26T10:12:39;3.40;33.50
8152;DHT22;4117;53.622;9.958;2024-02-26T10:15:07;3.50;33.60
8152;DHT22;4117;53.622;9.958;2024-02-26T10:17:35;3.50;33.60
8152;DHT22;4117;53.622;9.958;2024-02-26T10:20:15;3.60;33.90
8152;DHT22;4117;53.622;9.958;2024-02-26T10:22:43;3.60;33.70
8152;DHT22;4117;53.622;9.958;2024-02-26T10:25:10;3.60;33.70
8152;DHT22;4117;53.622;9.958;2024-02-26T10:27:37;3.70;33.80
8152;DHT22;4117;53.622;9.958;2024-02-26T10:30:12;3.70;33.70
8152;DHT22;4117;53.622;9.958;2024-02-26T10:32:42;3.80;33.60
8152;DHT22;4117;53.622;9.958;2024-02-26T10:35:10;3.90;33.90
8152;DHT22;4117;53.622;9.958;2024-02-26T10:37:40;3.90;35.00
8152;DHT22;4117;53.622;9.958;2024-02-26T10:40:10;4.00;38.50
8152;DHT22;4117;53.622;9.958;2024-02-26T10:42:37;4.10;39.00
8152;DHT22;4117;53.622;9.958;2024-02-26T10:45:05;4.10;40.10
8152;DHT22;4117;53.622;9.958;2024-02-26T10:47:33;4.20;39.80
8152;DHT22;4117;53.622;9.958;2024-02-26T10:50:01;4.20;34.30
8152;DHT22;4117;53.622;9.958;2024-02-26T10:52:31;4.20;34.10
8152;DHT22;4117;53.622;9.958;2024-02-26T10:55:02;4.30;34.20
8152;DHT22;4117;53.622;9.958;2024-02-26T10:57:32;4.30;32.70
8152;DHT22;4117;53.622;9.958;2024-02-26T11:00:03;4.30;30.70
8152;DHT22;4117;53.622;9.958;2024-02-26T11:02:32;4.40;27.50
8152;DHT22;4117;53.622;9.958;2024-02-26T11:05:01;4.50;28.50
8152;DHT22;4117;53.622;9.958;2024-02-26T11:07:30;4.60;28.60
8152;DHT22;4117;53.622;9.958;2024-02-26T11:10:00;4.60;23.20
8152;DHT22;4117;53.622;9.958;2024-02-26T11:12:30;4.60;20.30
8152;DHT22;4117;53.622;9.958;2024-02-26T11:14:58;4.70;21.60
8152;DHT22;4117;53.622;9.958;2024-02-26T11:17:28;4.80;22.50
8152;DHT22;4117;53.622;9.958;2024-02-26T11:19:57;4.90;20.20
8152;DHT22;4117;53.622;9.958;2024-02-26T11:22:25;5.00;18.40
8152;DHT22;4117;53.622;9.958;2024-02-26T11:24:53;5.00;13.60
8152;DHT22;4117;53.622;9.958;2024-02-26T11:27:27;5.10;13.70
8152;DHT22;4117;53.622;9.958;2024-02-26T11:29:56;5.30;13.80
8152;DHT22;4117;53.622;9.958;2024-02-26T11:32:25;5.30;8.50
8152;DHT22;4117;53.622;9.958;2024-02-26T11:34:53;5.30;1.00
8152;DHT22;4117;53.622;9.958;2024-02-26T11:37:21;5.40;1.00
8152;DHT22;4117;53.622;9.958;2024-02-26T11:39:48;5.50;1.00
8152;DHT22;4117;53.622;9.958;2024-02-26T11:42:24;5.60;1.00
8152;DHT22;4117;53.622;9.958;2024-02-26T11:44:51;5.80;1.00
8152;DHT22;4117;53.622;9.958;2024-02-26T11:47:20;5.80;1.00
8152;DHT22;4117;53.622;9.958;2024-02-26T11:49:48;5.90;1.00
8152;DHT22;4117;53.622;9.958;2024-02-26T11:52:15;5.90;1.00
8152;DHT22;4117;53.622;9.958;2024-02-26T11:54:47;6.00;1.00
8152;DHT22;4117;53.622;9.958;2024-02-26T11:57:21;6.00;1.00
8152;DHT22;4117;53.622;9.958;2024-02-26T11:59:50;6.10;1.00
8152;DHT22;4117;53.622;9.958;2024-02-26T12:02:45;6.10;1.00
8152;DHT22;4117;53.622;9.958;2024-02-26T12:05:14;6.10;1.00
8152;DHT22;4117;53.622;9.958;2024-02-26T12:07:44;6.20;1.00
8152;DHT22;4117;53.622;9.958;2024-02-26T12:10:32;6.20;1.00
8152;DHT22;4117;53.622;9.958;2024-02-26T12:13:05;6.20;1.00
8152;DHT22;4117;53.622;9.958;2024-02-26T12:15:37;6.10;1.00
8152;DHT22;4117;53.622;9.958;2024-02-26T12:18:06;6.10;1.00
8152;DHT22;4117;53.622;9.958;2024-02-26T12:20:35;6.10;1.00
8152;DHT22;4117;53.622;9.958;2024-02-26T12:23:03;6.10;1.00
8152;DHT22;4117;53.622;9.958;2024-02-26T12:25:31;6.00;1.00
8152;DHT22;4117;53.622;9.958;2024-02-26T12:27:59;6.00;1.00
8152;DHT22;4117;53.622;9.958;2024-02-26T12:30:27;6.00;1.00
8152;DHT22;4117;53.622;9.958;2024-02-26T12:32:56;6.00;1.00
8152;DHT22;4117;53.622;9.958;2024-02-26T12:35:26;6.10;1.00
8152;DHT22;4117;53.622;9.958;2024-02-26T12:37:53;6.00;1.00
8152;DHT22;4117;53.622;9.958;2024-02-26T12:40:21;6.00;1.00
8152;DHT22;4117;53.622;9.958;2024-02-26T12:42:48;6.00;1.00
8152;DHT22;4117;53.622;9.958;2024-02-26T12:45:15;6.10;1.00
8152;DHT22;4117;53.622;9.958;2024-02-26T12:47:43;6.10;1.00
8152;DHT22;4117;53.622;9.958;2024-02-26T12:50:12;6.20;1.00
8152;DHT22;4117;53.622;9.958;2024-02-26T12:52:40;6.20;1.00
8152;DHT22;4117;53.622;9.958;2024-02-26T12:55:08;6.10;1.00
8152;DHT22;4117;53.622;9.958;2024-02-26T12:57:36;6.10;1.00
8152;DHT22;4117;53.622;9.958;2024-02-26T13:00:05;6.00;1.00
8152;DHT22;4117;53.622;9.958;2024-02-26T13:02:35;6.10;1.00
8152;DHT22;4117;53.622;9.958;2024-02-26T13:05:03;6.10;1.00
8152;DHT22;4117;53.622;9.958;2024-02-26T13:07:32;6.10;1.00
8152;DHT22;4117;53.622;9.958;2024-02-26T13:09:59;6.10;1.00
8152;DHT22;4117;53.622;9.958;2024-02-26T13:12:26;6.10;1.00
8152;DHT22;4117;53.622;9.958;2024-02-26T13:15:00;6.00;1.00
8152;DHT22;4117;53.622;9.958;2024-02-26T13:17:27;6.10;1.00
8152;DHT22;4117;53.622;9.958;2024-02-26T13:19:55;6.20;1.00
8152;DHT22;4117;53.622;9.958;2024-02-26T13:22:22;6.20;1.00
8152;DHT22;4117;53.622;9.958;2024-02-26T13:24:58;6.10;1.00
8152;DHT22;4117;53.622;9.958;2024-02-26T13:27:25;6.10;1.00
8152;DHT22;4117;53.622;9.958;2024-02-26T13:30:05;6.10;1.00
8152;DHT22;4117;53.622;9.958;2024-02-26T13:32:38;6.10;1.00
8152;DHT22;4117;53.622;9.958;2024-02-26T13:35:06;6.20;1.00
8152;DHT22;4117;53.622;9.958;2024-02-26T13:37:34;6.20;1.00
8152;DHT22;4117;53.622;9.958;2024-02-26T13:40:04;6.20;1.00
8152;DHT22;4117;53.622;9.958;2024-02-26T13:42:32;6.20;1.00
8152;DHT22;4117;53.622;9.958;2024-02-26T13:44:59;6.30;1.00
8152;DHT22;4117;53.622;9.958;2024-02-26T13:47:26;6.20;1.00
8152;DHT22;4117;53.622;9.958;2024-02-26T13:49:53;6.20;1.00
8152;DHT22;4117;53.622;9.958;2024-02-26T13:52:20;6.30;1.00
8152;DHT22;4117;53.622;9.958;2024-02-26T13:54:47;6.30;1.00
8152;DHT22;4117;53.622;9.958;2024-02-26T13:57:15;6.20;1.00
8152;DHT22;4117;53.622;9.958;2024-02-26T13:59:43;6.20;1.00
8152;DHT22;4117;53.622;9.958;2024-02-26T14:02:10;6.20;1.00
8152;DHT22;4117;53.622;9.958;2024-02-26T14:04:38;6.20;1.00
8152;DHT22;4117;53.622;9.958;2024-02-26T14:07:05;6.20;1.00
8152;DHT22;4117;53.622;9.958;2024-02-26T14:09:32;6.30;1.00
8152;DHT22;4117;53.622;9.958;2024-02-26T14:11:59;6.30;1.00
8152;DHT22;4117;53.622;9.958;2024-02-26T14:14:28;6.30;1.00
8152;DHT22;4117;53.622;9.958;2024-02-26T14:16:58;6.20;1.00
8152;DHT22;4117;53.622;9.958;2024-02-26T14:19:25;6.20;1.00
8152;DHT22;4117;53.622;9.958;2024-02-26T14:21:52;6.20;1.00
8152;DHT22;4117;53.622;9.958;2024-02-26T14:24:19;6.30;1.00
8152;DHT22;4117;53.622;9.958;2024-02-26T14:26:46;6.20;1.00
8152;DHT22;4117;53.622;9.958;2024-02-26T14:29:13;6.20;1.00
8152;DHT22;4117;53.622;9.958;2024-02-26T14:31:43;6.20;1.00
8152;DHT22;4117;53.622;9.958;2024-02-26T14:34:10;6.10;1.00
8152;DHT22;4117;53.622;9.958;2024-02-26T14:36:37;6.20;1.00
8152;DHT22;4117;53.622;9.958;2024-02-26T14:39:04;6.20;1.00
8152;DHT22;4117;53.622;9.958;2024-02-26T14:41:31;6.30;1.00
8152;DHT22;4117;53.622;9.958;2024-02-26T14:43:57;6.30;1.00
8152;DHT22;4117;53.622;9.958;2024-02-26T14:46:24;6.30;1.00
8152;DHT22;4117;53.622;9.958;2024-02-26T14:48:53;6.30;1.00
8152;DHT22;4117;53.622;9.958;2024-02-26T14:51:22;6.30;1.00
8152;DHT22;4117;53.622;9.958;2024-02-26T14:53:49;6.30;1.00
8152;DHT22;4117;53.622;9.958;2024-02-26T14:56:16;6.30;1.00
8152;DHT22;4117;53.622;9.958;2024-02-26T14:58:44;6.30;1.00
8152;DHT22;4117;53.622;9.958;2024-02-26T15:01:11;6.30;1.00
8152;DHT22;4117;53.622;9.958;2024-02-26T15:03:38;6.30;1.00
8152;DHT22;4117;53.622;9.958;2024-02-26T15:06:06;6.20;1.00
8152;DHT22;4117;53.622;9.958;2024-02-26T15:08:33;6.10;1.00
8152;DHT22;4117;53.622;9.958;2024-02-26T15:11:01;6.10;1.00
8152;DHT22;4117;53.622;9.958;2024-02-26T15:13:28;6.10;1.00
8152;DHT22;4117;53.622;9.958;2024-02-26T15:15:55;6.00;1.00
8152;DHT22;4117;53.622;9.958;2024-02-26T15:18:22;6.00;1.00
8152;DHT22;4117;53.622;9.958;2024-02-26T15:20:49;6.00;1.00
8152;DHT22;4117;53.622;9.958;2024-02-26T15:23:18;6.00;1.00
8152;DHT22;4117;53.622;9.958;2024-02-26T15:25:45;6.00;1.00
8152;DHT22;4117;53.622;9.958;2024-02-26T15:28:12;6.00;1.00
8152;DHT22;4117;53.622;9.958;2024-02-26T15:30:40;5.90;1.00
8152;DHT22;4117;53.622;9.958;2024-02-26T15:33:08;5.90;1.00
8152;DHT22;4117;53.622;9.958;2024-02-26T15:35:35;5.80;1.00
8152;DHT22;4117;53.622;9.958;2024-02-26T15:38:03;5.80;1.00
8152;DHT22;4117;53.622;9.958;2024-02-26T15:40:32;5.80;1.00
8152;DHT22;4117;53.622;9.958;2024-02-26T15:42:59;5.80;1.00
8152;DHT22;4117;53.622;9.958;2024-02-26T15:45:26;5.80;1.00
8152;DHT22;4117;53.622;9.958;2024-02-26T15:47:57;5.70;1.00
8152;DHT22;4117;53.622;9.958;2024-02-26T15:50:24;5.70;1.00
8152;DHT22;4117;53.622;9.958;2024-02-26T15:52:54;5.70;1.00
8152;DHT22;4117;53.622;9.958;2024-02-26T15:55:21;5.70;1.00
8152;DHT22;4117;53.622;9.958;2024-02-26T15:57:49;5.60;1.00
8152;DHT22;4117;53.622;9.958;2024-02-26T16:00:17;5.60;1.00
8152;DHT22;4117;53.622;9.958;2024-02-26T16:02:47;5.50;1.00
8152;DHT22;4117;53.622;9.958;2024-02-26T16:05:14;5.50;1.00
8152;DHT22;4117;53.622;9.958;2024-02-26T16:07:45;5.50;1.00
8152;DHT22;4117;53.622;9.958;2024-02-26T16:10:15;5.40;1.00
8152;DHT22;4117;53.622;9.958;2024-02-26T16:12:46;5.40;1.00
8152;DHT22;4117;53.622;9.958;2024-02-26T16:15:16;5.50;1.00
8152;DHT22;4117;53.622;9.958;2024-02-26T16:17:44;5.50;1.00
8152;DHT22;4117;53.622;9.958;2024-02-26T16:20:13;5.40;1.00
8152;DHT22;4117;53.622;9.958;2024-02-26T16:22:41;5.40;1.00
8152;DHT22;4117;53.622;9.958;2024-02-26T16:25:08;5.50;1.00
8152;DHT22;4117;53.622;9.958;2024-02-26T16:27:36;5.50;1.00
8152;DHT22;4117;53.622;9.958;2024-02-26T16:30:03;5.50;1.00
8152;DHT22;4117;53.622;9.958;2024-02-26T16:32:32;5.60;1.00
8152;DHT22;4117;53.622;9.958;2024-02-26T16:35:00;5.50;1.00